Skip Navigation Links
NOAA logo - Click to go to the NOAA homepage
NOAA's National Weather Service
Alaska Aviation Weather Unit
  NWS logo - Click to go to the NWS homepage
Left Navbar Graphic     10 AKDT = 18 GMT

   
NOAA is celebrating 200 years of science, service, and stewardship. Visit the NOAA 200th celebration Web site to learn more.
USA.gov is the U.S. Government's official Web portal to all Federal, state and local government Web resources and services.
Facebook
NWS on Facebook

Important Change Regarding the AAWU Web Presence

 

Over the last several months, the AAWU has been working to navigate its webpages to a nationally supported server. Security, as well as other needs, have necessitated the change.  We have been given an extension for the site changeover while we diligently work at addressing feedback received. As of July 14, 2017, aawu.arh.noaa.gov will be discontinued. The new AAWU web address is weather.gov/aawu. It is now live and will run in-parallel with the old site until it is discontinued on July 14, 2017. Please continue to send any feedback or questions regarding the new webpages to nws.ar.aawu.webauthors@noaa.gov.  Thank you for your patience during this time of transition.
AAWU Home :: Display TAF Add Bookmark
TAF PAFA 261728Z 2618/2724  36006KT P6SM -RA BKN010 OVC040
     FM262200 04004KT P6SM SCT010 BKN025 BKN050
     FM270200 04008KT P6SM SCT050 SCT100 BKN200
     FM270800 01008KT P6SM FEW100 SCT200
     FM271500 04008KT P6SM BCFG FEW005 SCT100 SCT200
     FM271800 05006KT P6SM SCT100 BKN200=

3356
FTAK31 PAFA 261728
TAFATA
TAF
METAR PAFA 261253Z 00000KT 3SM R02L/2000V4000FT -RA BR FEW003 BKN011
     BKN075 04/04 A2985=

PAFA 261317Z 00000KT 3SM R02L/4500VP6000FT BR FEW003 SCT011 BKN075
04/04 A2985=

SPECI PAFA 261317Z 00000KT 3SM R02L/4500VP6000FT BR FEW003 SCT011 BKN075
     04/04 A2985 RMK AO2 RAE17 P0000 T00440044 $=

METAR PAFA 261353Z 00000KT 6SM BR FEW002 SCT010 BKN075 04/04 A2985=

METAR PAFA 261453Z 03003KT 6SM BR FEW002 BKN010 BKN070 06/06 A2986=

METAR PAFA 261553Z 36005KT 5SM -RA BR BKN010 BKN038 OVC070 06/06
     A2986=

METAR PAFA 261653Z 36006KT 7SM -RA BKN010 OVC038 06/06 A2987=

METAR PAFA 261753Z 01005KT 7SM BKN010 OVC038 07/06 A2988=


NOAA's National Weather Service
Alaska Aviation Weather Unit
6930 Sand Lake Road
Anchorage, AK 99502-1845
Disclaimer
Credits
Glossary
Privacy Policy
About Us
Career Opportunities
Contact AAWU Internet Services Site last modified: April, 17th 2012